Time;durP1;ratioP1;P1;durP2;ratioP2;P2;SDS_P1;SDS_P2;PMS_P1;PMS_P2;Temp;Humidity;BMP_temperature;BMP_pressure;BME280_temperature;BME280_humidity;BME280_pressure;Samples;Min_cycle;Max_cycle;Signal;HPM_P1;HPM_P2
2022/10/03 00:01:55;;;;;;;5.60;1.63;;;9.60;99.90;;;;;;5074001;28;20120;-67
2022/10/03 00:04:35;;;;;;;5.82;1.17;;;9.60;99.90;;;;;;5074579;28;20489;-66
2022/10/03 00:07:28;;;;;;;4.20;2.22;;;9.60;99.90;;;;;;5075036;28;20428;-66
2022/10/03 00:10:44;;;;;;;5.32;1.40;;;9.60;99.90;;;;;;5074510;28;20051;-66
2022/10/03 00:13:28;;;;;;;6.35;1.30;;;9.60;99.90;;;;;;5032069;28;20057;-66
2022/10/03 00:16:15;;;;;;;5.05;1.20;;;9.60;99.90;;;;;;5032637;28;20060;-65
2022/10/03 00:18:46;;;;;;;5.20;1.60;;;9.60;99.90;;;;;;5063662;28;20056;-65
2022/10/03 00:21:22;;;;;;;5.45;1.27;;;9.60;99.90;;;;;;5074215;28;20170;-66
2022/10/03 00:24:00;;;;;;;4.55;1.05;;;9.60;99.90;;;;;;5073877;28;20546;-66
2022/10/03 00:26:34;;;;;;;3.53;1.10;;;9.50;99.90;;;;;;5074719;28;20052;-66
2022/10/03 00:29:22;;;;;;;6.63;1.25;;;9.50;99.90;;;;;;5074737;28;20052;-66
2022/10/03 00:32:15;;;;;;;5.55;1.40;;;9.50;99.90;;;;;;5074164;28;20107;-66
2022/10/03 00:34:47;;;;;;;6.10;1.65;;;9.40;99.90;;;;;;5074078;28;20117;-66
2022/10/03 00:37:22;;;;;;;4.10;1.13;;;9.50;99.90;;;;;;5073491;28;20053;-67
2022/10/03 00:39:59;;;;;;;5.30;1.30;;;9.40;99.90;;;;;;5072923;28;20098;-66
2022/10/03 00:42:44;;;;;;;6.22;1.33;;;9.40;99.90;;;;;;5074079;28;20417;-66
2022/10/03 00:45:40;;;;;;;4.97;1.27;;;9.40;99.90;;;;;;5073866;28;20059;-66
2022/10/03 00:48:34;;;;;;;6.13;1.40;;;9.40;99.90;;;;;;5074368;28;20040;-67
2022/10/03 00:51:35;;;;;;;6.15;1.50;;;9.40;99.90;;;;;;5074355;28;20048;-66
2022/10/03 00:54:42;;;;;;;5.90;1.20;;;9.40;99.90;;;;;;5053567;28;20146;-67
2022/10/03 00:57:54;;;;;;;5.40;1.50;;;9.40;99.90;;;;;;5071221;28;20056;-67
2022/10/03 01:00:33;;;;;;;4.60;1.13;;;9.40;99.90;;;;;;5074228;28;20068;-67
2022/10/03 01:03:13;;;;;;;6.65;2.38;;;9.40;99.90;;;;;;5073492;28;20049;-67
2022/10/03 01:06:23;;;;;;;6.72;1.30;;;9.40;99.90;;;;;;5074171;28;20106;-66
2022/10/03 01:09:08;;;;;;;5.28;1.50;;;9.40;99.90;;;;;;5072465;28;20044;-66
2022/10/03 01:12:12;;;;;;;6.13;1.20;;;9.40;99.90;;;;;;5073448;28;20086;-67
2022/10/03 01:15:09;;;;;;;5.78;1.50;;;9.40;99.90;;;;;;5071437;28;20473;-66
2022/10/03 01:18:08;;;;;;;6.53;1.53;;;9.40;99.90;;;;;;5073099;28;20067;-66
2022/10/03 01:21:02;;;;;;;6.82;1.17;;;9.40;99.90;;;;;;5073966;28;20334;-66
2022/10/03 01:23:51;;;;;;;7.35;1.70;;;9.40;99.90;;;;;;5073849;28;20051;-66
2022/10/03 01:26:38;;;;;;;4.63;1.20;;;9.40;99.90;;;;;;5053587;28;20079;-67
2022/10/03 01:32:36;;;;;;;5.03;1.90;;;9.40;99.90;;;;;;5073317;28;20059;-66
2022/10/03 01:35:29;;;;;;;5.75;1.58;;;9.40;99.90;;;;;;5073162;28;20051;-66
2022/10/03 01:38:19;;;;;;;4.38;1.42;;;9.30;99.90;;;;;;5073728;28;20049;-66
2022/10/03 01:41:08;;;;;;;5.15;1.55;;;9.30;99.90;;;;;;5073809;28;20052;-65
2022/10/03 01:43:40;;;;;;;4.68;1.25;;;9.30;99.90;;;;;;5073565;28;20040;-66
2022/10/03 01:46:18;;;;;;;5.65;1.92;;;9.30;99.90;;;;;;5073973;28;20117;-66
2022/10/03 01:48:51;;;;;;;3.88;1.15;;;9.30;99.90;;;;;;5075827;28;20477;-66
2022/10/03 01:51:28;;;;;;;3.42;1.23;;;9.30;99.90;;;;;;5077288;28;20048;-66
2022/10/03 01:54:15;;;;;;;3.47;1.30;;;9.30;99.90;;;;;;5077170;28;20044;-66
2022/10/03 01:57:09;;;;;;;4.47;1.40;;;9.30;99.90;;;;;;5076138;28;20052;-67
2022/10/03 01:59:50;;;;;;;7.85;1.65;;;9.30;99.90;;;;;;5071951;28;20063;-66
2022/10/03 02:02:28;;;;;;;6.28;1.92;;;9.30;99.90;;;;;;5077231;28;20054;-67
2022/10/03 02:05:06;;;;;;;6.90;1.50;;;9.30;99.90;;;;;;5076249;28;20057;-66
2022/10/03 02:07:47;;;;;;;4.30;1.10;;;9.30;99.90;;;;;;5077511;28;20045;-66
2022/10/03 02:10:27;;;;;;;4.65;1.38;;;9.30;99.90;;;;;;5077145;28;20051;-66
2022/10/03 02:13:27;;;;;;;5.78;1.40;;;9.30;99.90;;;;;;5076714;28;20044;-66
2022/10/03 02:16:07;;;;;;;3.60;1.45;;;9.30;99.90;;;;;;5074741;28;20053;-67
2022/10/03 02:18:55;;;;;;;5.15;1.33;;;9.40;99.90;;;;;;5077429;28;20052;-66
2022/10/03 02:21:28;;;;;;;5.07;1.33;;;9.40;99.90;;;;;;5074569;28;20629;-66
2022/10/03 02:24:27;;;;;;;7.43;1.63;;;9.40;99.90;;;;;;5075400;28;20040;-66
2022/10/03 02:27:10;;;;;;;4.55;1.17;;;9.40;99.90;;;;;;5076348;28;20083;-67
2022/10/03 02:29:45;;;;;;;4.53;1.20;;;9.40;99.90;;;;;;5076780;28;20439;-66
2022/10/03 02:32:29;;;;;;;3.20;1.15;;;9.50;99.90;;;;;;5076467;28;20044;-67
2022/10/03 02:35:19;;;;;;;5.78;1.30;;;9.40;99.90;;;;;;5076354;28;20132;-67
2022/10/03 02:37:55;;;;;;;3.45;1.20;;;9.40;99.90;;;;;;5076362;28;20052;-67
2022/10/03 02:40:46;;;;;;;6.17;1.87;;;9.30;99.90;;;;;;5076617;28;20076;-67
2022/10/03 02:43:42;;;;;;;3.65;1.17;;;9.30;99.90;;;;;;5075855;28;20067;-67
2022/10/03 02:46:17;;;;;;;5.90;1.42;;;9.20;99.90;;;;;;5074983;28;20057;-66
2022/10/03 02:48:58;;;;;;;4.10;1.10;;;9.20;99.90;;;;;;5076096;28;20047;-66
2022/10/03 02:52:05;;;;;;;6.35;1.48;;;9.20;99.90;;;;;;5076854;28;20052;-67
2022/10/03 02:54:54;;;;;;;;;;;9.20;99.90;;;;;;5070366;28;20440;-66
2022/10/03 02:57:38;;;;;;;4.95;1.20;;;9.10;99.90;;;;;;5076010;28;19928;-66
2022/10/03 03:00:22;;;;;;;3.28;1.20;;;9.00;99.90;;;;;;5075218;28;20470;-67
2022/10/03 03:02:54;;;;;;;3.55;1.20;;;9.00;99.90;;;;;;5076083;28;20450;-66
2022/10/03 03:05:28;;;;;;;7.68;1.63;;;8.90;99.90;;;;;;5075792;28;20048;-67
2022/10/03 03:08:32;;;;;;;6.05;1.40;;;8.80;99.90;;;;;;5075760;28;20044;-66
2022/10/03 03:11:07;;;;;;;3.05;1.05;;;8.80;99.90;;;;;;5075721;28;20409;-66
2022/10/03 03:14:12;;;;;;;5.28;1.30;;;8.70;99.90;;;;;;5074202;28;21053;-67
2022/10/03 03:17:08;;;;;;;4.25;1.48;;;8.60;99.90;;;;;;5076149;28;20059;-66
2022/10/03 03:20:11;;;;;;;7.15;1.70;;;8.70;99.90;;;;;;5076093;28;20053;-66
2022/10/03 03:23:11;;;;;;;4.60;1.27;;;8.60;99.90;;;;;;5074519;28;20145;-67
2022/10/03 03:26:18;;;;;;;5.20;1.30;;;8.60;99.90;;;;;;5074830;28;20135;-67
2022/10/03 03:29:09;;;;;;;2.65;1.27;;;8.60;99.90;;;;;;5016781;28;20041;-67
2022/10/03 03:32:00;;;;;;;5.43;1.60;;;8.60;99.90;;;;;;5075904;28;20386;-67
2022/10/03 03:34:43;;;;;;;5.85;1.10;;;8.60;99.90;;;;;;5074040;28;20059;-67
2022/10/03 03:37:36;;;;;;;6.60;1.20;;;8.70;99.90;;;;;;5075266;28;20044;-67
2022/10/03 03:40:33;;;;;;;6.63;1.13;;;8.60;99.90;;;;;;5076079;28;20072;-67
2022/10/03 03:43:02;;;;;;;3.40;1.13;;;8.70;99.90;;;;;;5075651;28;20052;-66
2022/10/03 03:45:50;;;;;;;4.80;1.27;;;8.70;99.90;;;;;;5075024;28;20045;-66
2022/10/03 03:48:30;;;;;;;5.15;1.75;;;8.70;99.90;;;;;;5076150;28;20048;-65
2022/10/03 03:51:14;;;;;;;4.30;1.23;;;8.70;99.90;;;;;;5075534;28;20044;-66
2022/10/03 03:53:58;;;;;;;4.18;1.65;;;8.70;99.90;;;;;;5075531;28;20051;-66
2022/10/03 03:56:26;;;;;;;3.55;1.08;;;8.80;99.90;;;;;;5074145;28;20051;-68
2022/10/03 03:59:28;;;;;;;4.38;1.20;;;8.90;99.90;;;;;;5073818;28;20048;-66
2022/10/03 04:02:30;;;;;;;3.90;1.00;;;8.90;99.90;;;;;;5074763;28;20040;-67
2022/10/03 04:05:07;;;;;;;6.50;1.38;;;8.90;99.90;;;;;;5075245;28;20055;-67
2022/10/03 04:08:11;;;;;;;5.35;1.17;;;9.00;99.90;;;;;;5073646;28;20084;-67
2022/10/03 04:10:48;;;;;;;5.63;1.17;;;9.00;99.90;;;;;;5074578;28;20052;-66
2022/10/03 04:13:49;;;;;;;5.80;1.15;;;9.00;99.90;;;;;;5073039;28;20044;-66
2022/10/03 04:19:52;;;;;;;6.50;1.48;;;9.10;99.90;;;;;;5074950;28;20094;-67
2022/10/03 04:22:28;;;;;;;8.15;1.90;;;9.20;99.90;;;;;;5073317;28;20473;-66
2022/10/03 04:25:27;;;;;;;5.38;1.08;;;9.20;99.90;;;;;;5074504;28;20067;-66
2022/10/03 04:27:58;;;;;;;3.95;1.17;;;9.20;99.90;;;;;;5074503;28;20419;-66
2022/10/03 04:30:54;;;;;;;4.20;1.10;;;9.20;99.90;;;;;;5074107;28;20496;-66
2022/10/03 04:33:51;;;;;;;4.90;1.30;;;9.10;99.90;;;;;;5074182;28;20070;-66
2022/10/03 04:36:33;;;;;;;5.10;1.08;;;9.10;99.90;;;;;;5073998;28;20448;-67
2022/10/03 04:39:04;;;;;;;4.22;1.00;;;9.00;99.90;;;;;;5074017;28;20044;-67
2022/10/03 04:42:06;;;;;;;4.65;1.20;;;9.00;99.90;;;;;;5074784;28;20052;-66
2022/10/03 04:45:06;;;;;;;3.58;1.38;;;9.00;99.90;;;;;;5073703;28;20041;-66
2022/10/03 04:48:08;;;;;;;4.53;1.75;;;8.90;99.90;;;;;;5074504;28;20080;-66
2022/10/03 04:50:49;;;;;;;5.68;1.00;;;8.90;99.90;;;;;;5066456;28;20053;-66
2022/10/03 04:53:55;;;;;;;7.03;1.40;;;8.90;99.90;;;;;;5074342;28;20041;-66
2022/10/03 04:56:39;;;;;;;6.10;1.85;;;8.90;99.90;;;;;;5073775;28;20048;-67
2022/10/03 04:59:23;;;;;;;4.00;1.10;;;9.00;99.90;;;;;;5072505;28;20055;-67
2022/10/03 05:01:55;;;;;;;9.80;1.70;;;9.00;99.90;;;;;;5073691;28;20048;-68
2022/10/03 05:04:42;;;;;;;5.05;1.42;;;9.00;99.90;;;;;;5074104;28;20377;-66
2022/10/03 05:07:31;;;;;;;2.85;1.30;;;9.00;99.90;;;;;;5072393;28;20056;-67
2022/10/03 05:10:16;;;;;;;4.35;1.30;;;9.00;99.90;;;;;;5073550;28;20048;-67
2022/10/03 05:13:10;;;;;;;5.32;1.08;;;8.90;99.90;;;;;;5073689;28;20428;-68
2022/10/03 05:16:08;;;;;;;4.57;1.20;;;8.90;99.90;;;;;;5073507;28;20059;-69
2022/10/03 05:18:37;;;;;;;4.72;1.20;;;8.90;99.90;;;;;;5073976;28;20080;-67
2022/10/03 05:21:31;;;;;;;4.70;1.20;;;8.80;99.90;;;;;;5073317;28;20051;-66
2022/10/03 05:24:22;;;;;;;3.63;1.02;;;8.80;99.90;;;;;;5072743;28;20123;-67
2022/10/03 05:27:07;;;;;;;4.05;1.15;;;8.80;99.90;;;;;;5073866;28;20475;-67
2022/10/03 05:29:42;;;;;;;3.50;1.05;;;8.70;99.90;;;;;;5073150;28;20048;-67
2022/10/03 05:32:43;;;;;;;6.13;2.88;;;8.70;99.90;;;;;;5072984;28;20048;-67
2022/10/03 05:35:34;;;;;;;5.50;1.00;;;8.70;99.90;;;;;;5072512;28;20102;-66
2022/10/03 05:38:14;;;;;;;4.10;1.08;;;8.70;99.90;;;;;;5073225;28;20149;-67
2022/10/03 05:41:06;;;;;;;4.38;1.00;;;8.80;99.90;;;;;;5073507;28;20135;-67
2022/10/03 05:43:50;;;;;;;4.97;1.05;;;8.80;99.90;;;;;;5073539;28;20049;-66
2022/10/03 05:46:38;;;;;;;3.75;1.10;;;8.80;99.90;;;;;;5073959;28;20048;-66
2022/10/03 05:49:41;;;;;;;3.40;1.05;;;8.70;99.90;;;;;;5073115;28;20087;-66
2022/10/03 05:52:25;;;;;;;4.60;1.17;;;8.80;99.90;;;;;;5072753;28;20526;-67
2022/10/03 05:55:27;;;;;;;2.22;0.82;;;8.80;99.90;;;;;;5073609;28;20041;-67
2022/10/03 05:58:21;;;;;;;2.42;0.85;;;8.70;99.90;;;;;;5073273;28;20106;-66
2022/10/03 06:01:05;;;;;;;5.07;1.10;;;8.60;99.90;;;;;;5073522;28;20055;-66
2022/10/03 06:03:59;;;;;;;4.25;1.08;;;8.60;99.90;;;;;;5072541;28;20516;-67
2022/10/03 06:06:43;;;;;;;7.03;1.42;;;8.50;99.90;;;;;;5072625;28;20488;-67
2022/10/03 06:09:20;;;;;;;4.00;1.25;;;8.50;99.90;;;;;;5073525;28;20134;-67
2022/10/03 06:12:04;;;;;;;1.90;0.88;;;8.50;99.90;;;;;;5073305;28;20045;-67
2022/10/03 06:14:37;;;;;;;3.83;1.20;;;8.50;99.90;;;;;;5072864;28;20065;-66
2022/10/03 06:17:27;;;;;;;2.08;1.05;;;8.40;99.90;;;;;;5073171;28;20072;-66
2022/10/03 06:20:17;;;;;;;4.68;1.67;;;8.50;99.90;;;;;;5073426;28;20045;-67
2022/10/03 06:23:17;;;;;;;4.00;1.60;;;8.50;99.90;;;;;;5073251;28;20496;-66
2022/10/03 06:25:57;;;;;;;5.10;1.58;;;8.50;99.90;;;;;;5073194;28;20044;-67
2022/10/03 06:28:45;;;;;;;3.95;1.40;;;8.60;99.90;;;;;;5072492;28;20401;-67
2022/10/03 06:31:49;;;;;;;3.20;1.25;;;8.60;99.90;;;;;;5073247;28;20045;-63
2022/10/03 06:34:33;;;;;;;5.30;1.30;;;8.70;99.90;;;;;;5073673;28;20058;-63
2022/10/03 06:37:23;;;;;;;4.95;1.20;;;8.70;99.90;;;;;;5076281;28;20210;-63
2022/10/03 06:40:10;;;;;;;5.38;1.38;;;8.90;99.90;;;;;;5076327;28;20045;-63
2022/10/03 06:43:04;;;;;;;3.75;1.55;;;9.00;99.90;;;;;;5076297;28;20118;-63
2022/10/03 06:45:51;;;;;;;3.78;1.35;;;9.20;99.90;;;;;;5075906;28;20485;-63
2022/10/03 06:48:38;;;;;;;5.68;1.35;;;9.30;99.90;;;;;;5076984;28;20128;-63
2022/10/03 06:51:07;;;;;;;4.20;1.73;;;9.40;99.90;;;;;;5075455;28;20044;-63
2022/10/03 06:54:27;;;;;;;6.35;1.42;;;9.60;99.90;;;;;;5076748;28;20428;-64
2022/10/03 06:57:10;;;;;;;4.88;1.40;;;9.70;99.90;;;;;;5034248;28;20088;-64
2022/10/03 07:00:05;;;;;;;6.72;1.38;;;9.90;99.90;;;;;;5072856;28;20071;-63
2022/10/03 07:02:55;;;;;;;3.47;1.20;;;9.80;99.90;;;;;;5076430;28;20143;-63
2022/10/03 07:05:39;;;;;;;6.47;1.55;;;9.80;99.90;;;;;;5076428;28;20131;-63
2022/10/03 07:08:08;;;;;;;5.88;2.03;;;9.90;99.90;;;;;;5076354;28;20384;-63
2022/10/03 07:10:58;;;;;;;4.50;1.30;;;9.90;99.90;;;;;;5075727;28;20051;-62
2022/10/03 07:13:27;;;;;;;4.80;1.50;;;10.00;99.90;;;;;;5075044;28;20504;-64
2022/10/03 07:16:08;;;;;;;3.42;1.27;;;10.10;99.90;;;;;;5075719;28;20052;-63
2022/10/03 07:19:11;;;;;;;4.32;1.52;;;10.20;99.90;;;;;;5075744;28;20048;-63
2022/10/03 07:22:16;;;;;;;3.60;1.40;;;10.30;99.90;;;;;;5073843;28;20051;-63
2022/10/03 07:25:12;;;;;;;3.30;1.15;;;10.40;99.90;;;;;;5075408;28;20040;-64
2022/10/03 07:27:50;;;;;;;5.33;1.30;;;10.60;99.90;;;;;;5074933;28;20501;-64
2022/10/03 07:30:16;;;;;;;3.78;1.40;;;10.60;99.90;;;;;;5075011;28;20473;-64
2022/10/03 07:32:45;;;;;;;4.82;1.20;;;10.70;99.90;;;;;;5074984;28;20040;-64
2022/10/03 07:38:58;;;;;;;6.55;1.30;;;11.00;99.90;;;;;;5075138;28;20083;-62
2022/10/03 07:41:53;;;;;;;3.17;1.02;;;11.00;99.90;;;;;;5075752;28;20044;-63
2022/10/03 07:44:43;;;;;;;4.93;1.23;;;11.30;99.90;;;;;;5075504;28;20033;-63
2022/10/03 07:47:14;;;;;;;4.32;1.23;;;11.40;99.90;;;;;;5075233;28;20071;-64
2022/10/03 07:50:16;;;;;;;4.78;1.10;;;11.50;99.90;;;;;;5075372;28;20049;-63
2022/10/03 07:52:42;;;;;;;4.53;1.00;;;11.60;99.90;;;;;;5075284;28;20122;-63
2022/10/03 07:55:18;;;;;;;6.38;1.60;;;11.80;99.90;;;;;;5074600;28;20048;-63
2022/10/03 07:57:50;;;;;;;;;;;11.80;99.90;;;;;;5075808;28;20123;-63
2022/10/03 08:00:23;;;;;;;5.53;1.60;;;11.90;99.90;;;;;;5074784;28;19921;-63
2022/10/03 08:03:00;;;;;;;5.25;1.27;;;12.00;99.90;;;;;;5074664;28;20049;-62
2022/10/03 08:05:45;;;;;;;5.22;1.55;;;12.20;99.90;;;;;;5074865;28;20056;-64
2022/10/03 08:08:11;;;;;;;4.05;1.00;;;12.30;99.90;;;;;;5075207;28;20048;-63
2022/10/03 08:10:55;;;;;;;4.72;1.25;;;12.40;99.90;;;;;;5075065;28;20373;-62
2022/10/03 08:13:34;;;;;;;5.07;1.20;;;12.50;99.90;;;;;;5074764;28;20041;-61
2022/10/03 08:16:21;;;;;;;3.88;1.00;;;12.60;99.90;;;;;;5074486;28;20099;-62
2022/10/03 08:19:02;;;;;;;4.32;1.20;;;12.70;99.90;;;;;;5074385;28;20044;-63
2022/10/03 08:21:55;;;;;;;2.80;1.00;;;12.80;99.90;;;;;;5074346;28;20135;-63
2022/10/03 08:24:43;;;;;;;3.05;0.88;;;12.90;99.90;;;;;;5073793;28;20373;-62
2022/10/03 08:27:14;;;;;;;3.88;0.90;;;13.00;99.90;;;;;;5073044;28;20055;-62
2022/10/03 08:30:16;;;;;;;3.50;1.00;;;13.00;99.90;;;;;;5074651;28;20378;-62
2022/10/03 08:33:00;;;;;;;2.83;0.93;;;13.10;99.90;;;;;;5073409;28;20095;-62
2022/10/03 08:35:38;;;;;;;4.22;1.25;;;13.20;99.90;;;;;;5074601;28;20473;-62
2022/10/03 08:38:03;;;;;;;3.40;1.02;;;13.30;99.90;;;;;;5074262;28;20048;-62
2022/10/03 08:40:59;;;;;;;4.47;1.02;;;13.50;99.90;;;;;;5073981;28;20400;-62
2022/10/03 08:43:37;;;;;;;3.15;0.85;;;13.60;99.90;;;;;;5074256;28;20037;-62
2022/10/03 08:46:36;;;;;;;4.28;1.10;;;13.70;99.90;;;;;;5073857;28;20044;-63
2022/10/03 08:49:13;;;;;;;5.07;1.38;;;13.80;99.90;;;;;;5073863;28;20053;-62
2022/10/03 08:51:51;;;;;;;2.95;1.20;;;13.90;99.90;;;;;;5073752;28;20053;-63
2022/10/03 08:54:31;;;;;;;3.38;1.05;;;14.00;99.90;;;;;;5074168;28;20047;-62
2022/10/03 08:57:12;;;;;;;4.20;0.90;;;14.10;99.90;;;;;;5072785;28;20413;-63
2022/10/03 09:00:07;;;;;;;4.05;0.90;;;14.10;99.90;;;;;;5073388;28;20194;-63
2022/10/03 09:02:52;;;;;;;2.65;1.20;;;14.30;99.90;;;;;;5073643;28;20048;-63
2022/10/03 09:05:30;;;;;;;5.32;1.20;;;14.40;99.90;;;;;;5073604;28;20370;-62
2022/10/03 09:08:44;;;;;;;5.40;1.00;;;14.50;99.90;;;;;;5074110;28;20373;-63
2022/10/03 09:11:36;;;;;;;3.45;1.00;;;14.60;99.90;;;;;;5073320;28;20056;-63
2022/10/03 09:14:36;;;;;;;2.95;1.20;;;14.70;99.90;;;;;;5074112;28;20385;-63
2022/10/03 09:17:05;;;;;;;4.25;1.00;;;14.80;99.90;;;;;;5073417;28;20048;-63
2022/10/03 09:19:52;;;;;;;3.22;0.80;;;14.90;99.90;;;;;;5073804;28;20045;-62
2022/10/03 09:22:41;;;;;;;3.22;0.90;;;15.00;99.90;;;;;;5073659;28;20049;-63
2022/10/03 09:25:21;;;;;;;3.22;1.00;;;15.10;99.90;;;;;;5072111;28;20048;-63
2022/10/03 09:27:53;;;;;;;3.42;0.93;;;15.20;99.90;;;;;;5073266;28;20136;-62
2022/10/03 09:30:45;;;;;;;5.88;0.90;;;15.30;99.90;;;;;;5073207;28;20134;-63
2022/10/03 09:33:29;;;;;;;4.30;0.98;;;15.30;99.90;;;;;;5073704;28;20052;-62
2022/10/03 09:36:00;;;;;;;2.92;1.00;;;15.40;99.90;;;;;;5073330;28;20492;-63
2022/10/03 09:38:47;;;;;;;6.85;1.15;;;15.50;99.90;;;;;;5071915;28;20045;-62
2022/10/03 09:41:31;;;;;;;1.90;0.70;;;15.50;99.90;;;;;;5073605;28;20045;-63
2022/10/03 09:44:18;;;;;;;3.45;0.93;;;15.50;99.90;;;;;;5073771;28;20107;-63
2022/10/03 09:47:21;;;;;;;6.55;1.10;;;15.60;99.90;;;;;;5072831;28;20045;-63
2022/10/03 09:50:09;;;;;;;3.63;1.20;;;15.70;99.90;;;;;;5072784;28;20049;-63
2022/10/03 09:53:12;;;;;;;6.30;1.15;;;15.70;99.90;;;;;;5072837;28;20099;-62
2022/10/03 09:56:04;;;;;;;4.93;0.80;;;15.90;99.90;;;;;;5072965;28;20052;-63
2022/10/03 09:58:45;;;;;;;2.55;0.80;;;16.00;99.90;;;;;;5072709;28;20560;-63
2022/10/03 10:01:35;;;;;;;4.07;0.80;;;16.10;99.90;;;;;;5073347;28;20091;-62
2022/10/03 10:04:24;;;;;;;3.80;0.80;;;16.20;99.90;;;;;;5073091;28;20141;-62
2022/10/03 10:07:24;;;;;;;3.35;1.20;;;16.20;99.90;;;;;;5073012;28;20064;-62
2022/10/03 10:10:17;;;;;;;3.22;0.73;;;16.20;99.90;;;;;;5075903;28;20091;-62
2022/10/03 10:13:31;;;;;;;2.17;0.70;;;16.30;99.90;;;;;;5077224;28;20045;-63
2022/10/03 10:16:07;;;;;;;3.40;0.70;;;16.20;99.90;;;;;;5055282;28;20091;-63
2022/10/03 10:18:54;;;;;;;3.58;0.60;;;16.20;99.90;;;;;;5076451;28;20547;-63
2022/10/03 10:21:32;;;;;;;5.82;0.80;;;16.20;99.90;;;;;;5077431;28;20379;-63
2022/10/03 10:24:03;;;;;;;3.05;0.98;;;16.10;99.90;;;;;;5076875;28;20123;-63
2022/10/03 10:26:56;;;;;;;4.10;0.60;;;16.10;99.90;;;;;;5076125;28;20501;-62
2022/10/03 10:29:43;;;;;;;3.95;0.52;;;16.10;99.90;;;;;;5077505;28;20375;-64
2022/10/03 10:32:27;;;;;;;2.50;0.68;;;16.10;99.90;;;;;;5077216;28;20048;-65
2022/10/03 10:35:30;;;;;;;2.90;0.68;;;16.10;99.90;;;;;;5076722;28;20040;-64
2022/10/03 10:38:17;;;;;;;3.15;0.68;;;16.10;99.90;;;;;;5076544;28;20044;-63
2022/10/03 10:41:13;;;;;;;3.50;0.75;;;16.10;99.90;;;;;;5076738;28;20087;-63
2022/10/03 10:44:16;;;;;;;3.65;0.90;;;16.10;99.90;;;;;;5075677;28;20379;-62
2022/10/03 10:47:19;;;;;;;3.97;0.90;;;16.00;99.90;;;;;;5076131;28;20048;-63
2022/10/03 10:50:12;;;;;;;3.28;0.90;;;16.00;99.90;;;;;;5076215;28;20546;-63
2022/10/03 10:52:50;;;;;;;3.78;0.90;;;16.00;99.90;;;;;;5076091;28;20080;-63
2022/10/03 10:55:49;;;;;;;4.25;0.82;;;16.10;99.90;;;;;;5075870;28;20386;-62
2022/10/03 10:58:53;;;;;;;2.55;0.63;;;16.10;99.90;;;;;;5076807;28;20102;-63
2022/10/03 11:02:04;;;;;;;4.85;1.08;;;16.00;99.90;;;;;;5075833;28;20485;-63
2022/10/03 11:04:39;;;;;;;2.35;0.68;;;16.00;99.90;;;;;;5075842;28;20127;-63
2022/10/03 11:07:15;;;;;;;3.92;0.63;;;15.90;99.90;;;;;;5075446;28;20051;-62
2022/10/03 11:09:59;;;;;;;3.38;0.70;;;16.00;99.90;;;;;;5076255;28;20040;-64
2022/10/03 11:12:47;;;;;;;1.85;0.63;;;16.00;99.90;;;;;;5075796;28;20450;-64
2022/10/03 11:15:49;;;;;;;2.15;0.60;;;16.00;99.90;;;;;;5075741;28;20529;-64
2022/10/03 11:18:48;;;;;;;2.38;0.80;;;16.00;99.90;;;;;;5075565;28;20106;-63
2022/10/03 11:21:36;;;;;;;4.10;0.80;;;16.00;99.90;;;;;;5058477;28;20109;-63
2022/10/03 11:24:23;;;;;;;3.00;0.70;;;16.10;99.90;;;;;;5075456;28;20093;-63
2022/10/03 11:27:07;;;;;;;4.05;0.70;;;16.20;99.90;;;;;;5076148;28;20444;-64
2022/10/03 11:30:03;;;;;;;2.28;0.70;;;16.20;99.90;;;;;;5074794;28;20094;-64
2022/10/03 11:33:22;;;;;;;3.23;0.87;;;16.30;99.90;;;;;;5075695;28;20122;-64
2022/10/03 11:36:10;;;;;;;3.97;0.80;;;16.20;99.90;;;;;;5033029;28;20513;-64
2022/10/03 11:39:01;;;;;;;2.70;0.60;;;16.10;99.90;;;;;;5032893;28;20065;-63
2022/10/03 11:41:45;;;;;;;5.53;0.65;;;16.10;99.90;;;;;;5060974;28;20060;-64
2022/10/03 11:44:22;;;;;;;3.75;0.85;;;16.10;99.90;;;;;;5074897;28;20041;-64
2022/10/03 11:47:19;;;;;;;3.05;0.73;;;16.10;99.90;;;;;;5075034;28;20113;-64
2022/10/03 11:49:59;;;;;;;5.70;0.93;;;16.10;99.90;;;;;;5075885;28;20045;-63
2022/10/03 11:52:24;;;;;;;2.85;0.85;;;16.10;99.90;;;;;;5075588;28;20051;-63
2022/10/03 11:55:12;;;;;;;3.90;0.80;;;16.00;99.90;;;;;;5073625;28;20053;-63
2022/10/03 11:57:39;;;;;;;3.13;0.70;;;16.10;99.90;;;;;;5075410;28;20051;-62
2022/10/03 12:00:18;;;;;;;1.83;0.68;;;16.00;99.90;;;;;;5075402;28;20080;-62
2022/10/03 12:02:59;;;;;;;3.20;0.80;;;16.00;99.90;;;;;;5075068;28;20093;-62
2022/10/03 12:05:45;;;;;;;2.60;0.65;;;16.00;99.90;;;;;;5073785;28;20048;-63
2022/10/03 12:12:03;;;;;;;1.77;0.60;;;16.10;99.90;;;;;;5074491;28;20059;-62
2022/10/03 12:14:55;;;;;;;1.60;0.60;;;16.20;99.90;;;;;;5055252;28;20052;-62
2022/10/03 12:17:39;;;;;;;1.00;0.50;;;16.20;99.90;;;;;;5074863;28;20060;-63
2022/10/03 12:20:24;;;;;;;2.38;0.70;;;16.30;99.90;;;;;;5074451;28;20080;-62
2022/10/03 12:23:03;;;;;;;2.13;0.70;;;16.30;99.90;;;;;;5074196;28;20045;-62
2022/10/03 12:25:35;;;;;;;2.05;0.50;;;16.50;99.90;;;;;;5074574;28;20417;-62
2022/10/03 12:28:24;;;;;;;1.83;0.47;;;16.60;99.90;;;;;;5074320;28;20132;-62
2022/10/03 12:30:56;;;;;;;2.47;0.63;;;16.70;99.90;;;;;;5067873;28;20519;-62
2022/10/03 12:33:38;;;;;;;1.85;0.68;;;16.80;99.90;;;;;;5073852;28;20481;-62
2022/10/03 12:36:18;;;;;;;3.22;0.73;;;16.90;99.90;;;;;;5074604;28;20051;-62
2022/10/03 12:39:05;;;;;;;5.05;0.63;;;17.00;99.90;;;;;;5074049;28;20098;-62
2022/10/03 12:42:13;;;;;;;2.75;0.88;;;17.00;99.90;;;;;;5074357;28;20440;-62
2022/10/03 12:45:00;;;;;;;4.43;1.00;;;16.90;99.90;;;;;;5040891;28;20068;-63
2022/10/03 12:48:00;;;;;;;4.22;0.90;;;16.80;99.90;;;;;;5073570;28;20053;-62
2022/10/03 12:50:38;;;;;;;1.80;0.68;;;16.80;99.90;;;;;;5072572;28;20052;-63
2022/10/03 12:53:16;;;;;;;2.38;0.70;;;16.80;99.90;;;;;;5073728;28;20052;-63
2022/10/03 12:56:09;;;;;;;3.80;0.65;;;16.80;99.90;;;;;;5074253;28;20057;-63
2022/10/03 12:58:54;;;;;;;4.55;0.80;;;16.80;99.90;;;;;;5073972;28;20087;-62
2022/10/03 13:01:44;;;;;;;3.45;0.60;;;16.90;99.90;;;;;;5073477;28;20533;-63
2022/10/03 13:04:48;;;;;;;1.95;0.68;;;16.90;99.90;;;;;;5073416;28;20041;-63
2022/10/03 13:07:28;;;;;;;2.97;0.80;;;16.90;99.90;;;;;;5073866;28;20114;-63
2022/10/03 13:10:18;;;;;;;2.80;0.60;;;17.00;99.90;;;;;;5073310;28;20056;-63
2022/10/03 13:12:51;;;;;;;2.13;0.60;;;17.00;99.90;;;;;;5074230;28;20055;-64
2022/10/03 13:15:47;;;;;;;1.30;0.50;;;17.00;99.90;;;;;;5073212;28;20060;-64
2022/10/03 13:18:50;;;;;;;1.88;0.70;;;17.00;99.90;;;;;;5073103;28;20493;-64
2022/10/03 13:21:48;;;;;;;1.75;0.70;;;17.00;99.90;;;;;;5073604;28;20481;-64
2022/10/03 13:24:21;;;;;;;2.47;0.70;;;16.90;99.90;;;;;;5072321;28;20527;-63
2022/10/03 13:27:21;;;;;;;2.45;0.70;;;16.90;99.90;;;;;;5073142;28;20123;-63
2022/10/03 13:29:55;;;;;;;3.92;0.80;;;16.90;99.90;;;;;;5073341;28;20054;-64
2022/10/03 13:32:41;;;;;;;1.67;0.50;;;16.80;99.90;;;;;;5073228;28;20501;-63
2022/10/03 13:38:39;;;;;;;3.13;0.65;;;16.80;99.90;;;;;;5073202;28;20052;-64
2022/10/03 13:41:20;;;;;;;4.15;0.90;;;16.80;99.90;;;;;;5072556;28;20056;-64
2022/10/03 13:44:03;;;;;;;1.52;0.57;;;16.80;99.90;;;;;;5072200;28;20543;-64
2022/10/03 13:46:55;;;;;;;2.30;0.50;;;16.80;99.90;;;;;;5073663;28;20094;-64
2022/10/03 13:49:33;;;;;;;2.15;0.60;;;16.80;99.90;;;;;;5073306;28;20462;-63
2022/10/03 13:52:22;;;;;;;2.50;0.80;;;16.80;99.90;;;;;;5073149;28;20056;-64
2022/10/03 13:55:25;;;;;;;3.80;0.77;;;16.80;99.90;;;;;;5072412;28;20385;-63
2022/10/03 13:58:31;;;;;;;2.15;0.63;;;16.70;99.90;;;;;;5072886;28;20529;-63
2022/10/03 14:01:12;;;;;;;2.55;0.65;;;16.70;99.90;;;;;;5072790;28;20052;-63
2022/10/03 14:03:44;;;;;;;2.78;0.73;;;16.70;99.90;;;;;;5072672;28;20044;-63
2022/10/03 14:06:15;;;;;;;2.42;0.68;;;16.60;99.90;;;;;;5072830;28;20127;-62
2022/10/03 14:08:54;;;;;;;2.13;0.60;;;16.60;99.90;;;;;;5073398;28;20048;-61
2022/10/03 14:11:43;;;;;;;1.48;0.50;;;16.60;99.90;;;;;;5073397;28;20389;-62
2022/10/03 14:14:23;;;;;;;2.08;0.68;;;16.50;99.90;;;;;;5073252;28;20377;-63
2022/10/03 14:17:03;;;;;;;3.65;0.60;;;16.50;99.90;;;;;;5072649;28;20049;-62
2022/10/03 14:19:50;;;;;;;2.22;0.52;;;16.50;99.90;;;;;;5072592;28;20059;-62
2022/10/03 14:22:31;;;;;;;3.33;0.70;;;16.50;99.90;;;;;;5072824;28;20131;-63
2022/10/03 14:25:18;;;;;;;1.60;0.60;;;16.50;99.90;;;;;;5073399;28;20448;-66
2022/10/03 14:27:53;;;;;;;3.30;0.90;;;16.50;99.90;;;;;;5072915;28;20469;-62
2022/10/03 14:30:26;;;;;;;1.95;0.60;;;16.40;99.90;;;;;;5072746;28;20047;-61
2022/10/03 14:32:59;;;;;;;3.78;0.68;;;16.40;99.90;;;;;;5072696;28;20087;-61
2022/10/03 14:35:50;;;;;;;2.72;0.80;;;16.40;99.90;;;;;;5072748;28;20132;-61
2022/10/03 14:38:57;;;;;;;3.55;1.13;;;16.40;99.90;;;;;;5072658;28;20050;-61
2022/10/03 14:41:31;;;;;;;1.67;0.80;;;16.40;99.90;;;;;;5072475;28;20056;-61
2022/10/03 14:44:00;;;;;;;3.85;0.80;;;16.40;99.90;;;;;;5072849;28;20044;-62
2022/10/03 14:46:31;;;;;;;2.35;0.70;;;16.40;99.90;;;;;;5071810;28;20382;-62
2022/10/03 14:49:05;;;;;;;2.80;0.65;;;16.40;99.90;;;;;;5072636;28;20052;-62
2022/10/03 14:51:46;;;;;;;2.20;0.60;;;16.40;99.90;;;;;;5072440;28;20049;-62